Latest Weather Observations for Mildura

IDN60801

Issued at 7:03 am EST Tuesday 26 May 2015 (issued every 30 minutes, with the page automatically refreshed every 10 minutes)

About weather observations | Map of weather stations | Latest weather observations for NSW | Other Formats
Station Details ID: 076031 Name: MILDURA AIRPORT Lat: -34.24 Lon: 142.09 Height: 50.0 m
Data from the previous 72 hours. | See also: Recent months at Mildura
Date/Time
EST
Temp
°C
App
Temp
°C
Dew
Point
Rel
Hum
%
Delta-T
°C
Wind Press
QNH
hPa
Press
MSL
hPa
Rain
since 9 am
mm
Dir
 
Spd
km/h
Gust
km/h
Spd
kts
Gust
kts
26/07:00am 11.2 9.5 8.2 82 1.5 NE 7 7 4 4 1027.3 1027.3 0.0
26/06:30am 10.9 10.5 8.3 84 1.3 CALM 0 0 0 0 1027.0 1027.0 0.0
26/06:00am 11.0 10.1 7.9 81 1.5 NNE 2 6 1 3 1026.8 1026.8 0.0
26/05:30am 10.9 9.3 8.1 83 1.4 E 6 9 3 5 1026.6 1026.6 0.0
26/05:00am 11.1 9.5 8.1 82 1.5 NE 6 7 3 4 1027.1 1027.1 0.0
26/04:30am 10.5 10.0 7.9 84 1.3 CALM 0 0 0 0 1026.9 1026.9 0.0
26/04:00am 10.1 9.6 8.0 87 1.0 CALM 0 0 0 0 1027.0 1027.0 0.0
26/03:30am 10.2 9.6 7.6 84 1.2 CALM 0 0 0 0 1027.2 1027.2 0.0
26/03:00am 10.4 9.8 7.6 83 1.3 CALM 0 0 0 0 1027.4 1027.4 0.0
26/02:30am 10.8 10.3 7.9 82 1.4 CALM 0 0 0 0 1027.5 1027.5 0.0
26/02:00am 10.6 10.1 7.7 82 1.4 CALM 0 0 0 0 1027.4 1027.4 0.0
26/01:30am 10.7 9.1 7.8 82 1.4 SE 6 6 3 3 1027.6 1027.6 0.0
26/01:00am 10.4 9.8 7.6 83 1.3 CALM 0 0 0 0 1027.7 1027.7 0.0
26/12:30am 10.0 9.0 7.4 84 1.2 E 2 6 1 3 1027.9 1027.9 0.0
26/12:00am 10.1 9.5 7.5 84 1.2 CALM 0 0 0 0 1028.1 1028.1 0.0
 
Date/Time
EST
Temp
°C
App
Temp
°C
Dew
Point
Rel
Hum
%
Delta-T
°C
Wind Press
QNH
hPa
Press
MSL
hPa
Rain
since 9 am
mm
Dir
 
Spd
km/h
Gust
km/h
Spd
kts
Gust
kts
25/11:30pm 10.0 8.3 7.4 84 1.2 SSE 6 7 3 4 1028.2 1028.2 0.0
25/11:00pm 10.0 8.0 7.3 83 1.3 SSE 7 9 4 5 1028.0 1028.0 0.0
25/10:30pm 10.8 9.0 7.9 82 1.4 ESE 7 7 4 4 1028.2 1028.2 0.0
25/10:00pm 10.6 8.8 7.8 83 1.3 ESE 7 9 4 5 1028.2 1028.2 0.0
25/09:30pm 10.3 8.4 7.4 82 1.4 ESE 7 9 4 5 1028.3 1028.3 0.0
25/09:00pm 10.8 9.1 7.5 80 1.6 ENE 6 6 3 3 1028.6 1028.6 0.0
25/08:30pm 11.5 9.8 7.4 76 2.0 SE 6 7 3 4 1028.6 1028.6 0.0
25/08:00pm 11.8 9.9 7.5 75 2.1 SE 7 7 4 4 1028.4 1028.4 0.0
25/07:30pm 12.5 10.9 7.8 73 2.3 SSE 6 7 3 4 1028.4 1028.4 0.0
25/07:00pm 12.8 11.1 7.7 71 2.5 S 6 9 3 5 1028.1 1028.1 0.0
25/06:30pm 13.2 11.3 7.4 68 2.8 S 7 9 4 5 1027.7 1027.7 0.0
25/06:09pm 14.2 12.5 7.5 64 3.3 SSE 6 9 3 5 1027.7 1027.7 0.0
25/06:00pm 14.6 14.2 8.1 65 3.2 CALM 0 0 0 0 1027.5 1027.5 0.0
25/05:57pm 14.7 14.2 8.0 64 3.4 CALM 0 0 0 0 1027.5 1027.5 0.0
25/05:30pm 16.3 15.8 7.8 57 4.3 CALM 0 0 0 0 1026.8 1026.8 0.0
25/05:00pm 18.2 17.8 8.2 52 5.1 CALM 0 0 0 0 1026.8 1026.8 0.0
25/04:30pm 19.7 19.0 7.1 44 6.4 CALM 0 0 0 0 1026.9 1026.9 0.0
25/04:00pm 20.2 18.7 6.9 42 6.7 N 4 7 2 4 1027.0 1027.0 0.0
25/03:30pm 20.1 18.6 8.4 47 6.1 SW 6 9 3 5 1027.0 1027.0 0.0
25/03:00pm 19.6 18.1 7.0 44 6.3 ESE 4 9 2 5 1026.8 1026.8 0.0
25/02:30pm 19.7 17.9 7.8 46 6.1 SSE 7 13 4 7 1026.9 1026.9 0.0
25/02:00pm 19.6 17.9 8.3 48 5.8 WNW 7 13 4 7 1027.2 1027.2 0.0
25/01:30pm 19.2 17.2 7.3 46 6.0 E 7 11 4 6 1027.7 1027.7 0.0
25/01:00pm 18.9 18.0 7.7 48 5.7 NW 2 7 1 4 1028.4 1028.4 0.0
25/12:30pm 18.8 18.5 8.5 51 5.3 CALM 0 0 0 0 1028.9 1028.9 0.0
25/12:00pm 17.3 15.5 7.1 51 5.1 SSE 6 9 3 5 1029.5 1029.5 0.0
25/11:30am 16.9 16.1 8.1 56 4.5 SSE 2 13 1 7 1030.1 1030.1 0.0
25/11:00am 16.4 14.9 6.8 53 4.7 N 4 9 2 5 1030.3 1030.3 0.0
25/10:30am 15.6 13.9 6.1 53 4.6 NE 4 9 2 5 1030.6 1030.6 0.0
25/10:00am 13.6 11.3 5.7 59 3.7 NE 7 9 4 5 1030.8 1030.8 0.0
25/09:30am 12.1 9.8 5.7 65 3.0 NE 7 9 4 5 1031.0 1031.0 0.0
25/09:00am 11.4 10.2 6.3 71 2.4 ESE 2 7 1 4 1030.8 1030.8 0.0
25/08:30am 8.5 6.7 5.3 80 1.4 E 4 7 2 4 1030.7 1030.7 0.0
25/08:00am 8.2 6.4 5.3 82 1.3 E 4 7 2 4 1030.4 1030.4 0.0
25/07:30am 8.1 5.7 5.4 83 1.2 ENE 7 9 4 5 1030.1 1030.1 0.0
25/07:00am 7.8 5.6 5.1 83 1.2 ESE 6 7 3 4 1030.0 1030.0 0.0
25/06:30am 7.3 4.8 4.9 85 1.1 E 7 9 4 5 1029.7 1029.7 0.0
25/06:00am 7.3 4.9 5.4 88 0.8 ESE 7 9 4 5 1029.6 1029.6 0.0
25/05:30am 7.8 5.6 5.4 85 1.1 SE 6 7 3 4 1029.5 1029.5 0.0
25/05:00am 8.4 6.3 6.0 85 1.1 ESE 6 7 3 4 1029.2 1029.2 0.0
25/04:30am 8.4 6.4 6.2 86 1.0 SE 6 7 3 4 1029.2 1029.2 0.0
25/04:00am 8.4 7.5 6.0 85 1.1 CALM 0 0 0 0 1029.6 1029.6 0.0
25/03:30am 8.6 6.6 6.2 85 1.1 E 6 6 3 3 1029.4 1029.4 0.0
25/03:00am 8.7 6.7 6.3 85 1.1 SE 6 7 3 4 1029.2 1029.2 0.0
25/02:30am 8.9 8.0 6.0 82 1.3 CALM 0 0 0 0 1029.4 1029.4 0.0
25/02:00am 9.3 8.4 6.2 81 1.4 CALM 0 0 0 0 1029.3 1029.3 0.0
25/01:30am 9.7 7.7 6.2 79 1.6 NE 6 9 3 5 1029.4 1029.4 0.0
25/01:00am 9.1 6.9 6.4 83 1.2 ENE 7 11 4 6 1029.2 1029.2 0.0
25/12:30am 9.7 9.0 6.8 82 1.4 CALM 0 7 0 4 1029.8 1029.8 0.0
25/12:00am 10.2 8.4 7.1 81 1.5 ENE 6 7 3 4 1029.7 1029.7 0.0
 
Date/Time
EST
Temp
°C
App
Temp
°C
Dew
Point
Rel
Hum
%
Delta-T
°C
Wind Press
QNH
hPa
Press
MSL
hPa
Rain
since 9 am
mm
Dir
 
Spd
km/h
Gust
km/h
Spd
kts
Gust
kts
24/11:30pm 10.3 8.4 6.8 79 1.7 E 6 7 3 4 1029.8 1029.8 0.0
24/11:00pm 10.7 9.3 7.4 80 1.6 ENE 4 9 2 5 1030.2 1030.2 0.0
24/10:30pm 11.3 9.3 7.2 76 2.0 E 7 9 4 5 1029.6 1029.6 0.0
24/10:00pm 11.4 10.8 7.3 76 2.0 CALM 0 0 0 0 1030.2 1030.2 0.0
24/09:30pm 12.1 9.8 7.4 73 2.3 E 9 11 5 6 1029.9 1029.9 0.0
24/09:00pm 11.9 10.0 7.6 75 2.1 ESE 7 9 4 5 1030.0 1030.0 0.0
24/08:30pm 11.9 10.0 7.6 75 2.1 ESE 7 11 4 6 1029.9 1029.9 0.0
24/08:00pm 12.2 11.2 7.5 73 2.3 SE 2 9 1 5 1029.8 1029.8 0.0
24/07:30pm 11.9 10.6 7.6 75 2.1 E 4 9 2 5 1029.9 1029.9 0.0
24/07:00pm 12.1 11.5 7.6 74 2.2 CALM 0 0 0 0 1030.2 1030.2 0.0
24/06:30pm 12.8 11.9 7.7 71 2.5 WNW 2 6 1 3 1029.9 1029.9 0.0
24/06:00pm 13.4 12.8 7.4 67 2.9 CALM 0 0 0 0 1029.4 1029.4 0.0
24/05:30pm 14.2 13.7 7.7 65 3.2 CALM 0 0 0 0 1029.1 1029.1 0.0
24/05:00pm 15.7 15.2 7.7 59 4.0 CALM 0 0 0 0 1028.7 1028.7 0.0
24/04:30pm 16.9 16.1 6.7 51 5.0 CALM 0 6 0 3 1028.9 1028.9 0.0
24/04:00pm 17.6 15.6 6.2 47 5.6 NNW 6 9 3 5 1028.9 1028.9 0.0
24/03:30pm 18.5 16.9 6.4 45 6.0 N 4 9 2 5 1028.8 1028.8 0.0
24/03:00pm 17.1 14.6 6.6 50 5.2 N 9 13 5 7 1029.1 1029.1 0.0
24/02:30pm 17.3 14.3 6.2 48 5.5 NW 11 15 6 8 1029.1 1029.1 0.0
24/02:00pm 17.3 13.6 6.5 49 5.3 N 15 19 8 10 1029.2 1029.2 0.0
24/01:30pm 17.3 13.7 6.8 50 5.2 NNE 15 22 8 12 1029.0 1029.0 0.0
24/01:00pm 17.5 14.6 6.7 49 5.3 NNE 11 13 6 7 1029.3 1029.3 0.0
24/12:30pm 16.8 13.9 6.6 51 5.0 NNE 11 15 6 8 1029.6 1029.6 0.0
24/12:00pm 15.8 13.0 7.0 56 4.3 NNE 11 15 6 8 1030.0 1030.0 0.0
24/11:30am 14.5 11.6 6.6 59 3.8 NNE 11 15 6 8 1030.5 1030.5 0.0
24/11:00am 13.6 11.2 7.2 65 3.1 NNE 9 13 5 7 1030.9 1030.9 0.0
24/10:30am 12.3 10.3 7.0 70 2.6 NNE 7 13 4 7 1030.9 1030.9 0.0
24/10:00am 8.8 7.3 6.9 88 0.9 E 4 9 2 5 1030.9 1030.9 0.0
24/09:30am 6.9 6.1 6.3 96 0.3 CALM 0 0 0 0 1031.1 1031.1 0.0
24/09:00am 5.7 4.7 5.4 98 0.1 CALM 0 0 0 0 1031.1 1031.1 0.0
24/08:30am 4.8 3.6 4.5 98 0.1 CALM 0 0 0 0 1031.0 1031.0 0.0
24/08:00am 3.4 1.9 3.1 98 0.1 CALM 0 0 0 0 1030.5 1030.5 0.0
24/07:30am 2.3 0.6 1.9 97 0.2 CALM 0 0 0 0 1030.2 1030.2 0.0
24/07:00am 2.5 0.8 2.1 97 0.2 CALM 0 0 0 0 1030.3 1030.3 0.0
24/06:30am 2.5 0.8 2.1 97 0.2 CALM 0 0 0 0 1029.9 1029.9 0.0
24/06:00am 2.7 1.1 2.4 98 0.1 CALM 0 0 0 0 1029.9 1029.9 0.0
24/05:57am 2.7 1.1 2.4 98 0.1 CALM 0 0 0 0 1029.9 1029.9 0.0
24/05:42am 2.5 0.8 2.1 97 0.2 CALM 0 0 0 0 1029.7 1029.7 0.0
24/05:30am 3.0 1.4 2.6 97 0.2 CALM 0 0 0 0 1029.6 1029.6 0.0
24/05:00am 2.8 1.2 2.4 97 0.2 CALM 0 0 0 0 1029.6 1029.6 0.0
24/04:30am 3.4 1.9 3.1 98 0.1 CALM 0 0 0 0 1029.3 1029.3 0.0
24/04:00am 3.3 0.6 2.9 97 0.2 E 6 7 3 4 1029.1 1029.1 0.0
24/03:30am 3.2 1.3 2.8 97 0.2 ESE 2 9 1 5 1029.1 1029.1 0.0
24/03:00am 3.5 2.0 3.1 97 0.2 CALM 0 0 0 0 1029.3 1029.3 0.0
24/02:30am 3.1 1.5 2.5 96 0.2 CALM 0 0 0 0 1029.3 1029.3 0.0
24/02:00am 3.8 2.3 3.2 96 0.2 CALM 0 0 0 0 1029.5 1029.5 0.0
24/01:30am 3.6 2.1 2.9 95 0.3 CALM 0 0 0 0 1029.6 1029.6 0.0
24/01:00am 4.2 2.8 3.5 95 0.3 CALM 0 0 0 0 1029.8 1029.8 0.0
24/12:30am 4.2 2.0 3.3 94 0.4 SSE 4 6 2 3 1029.8 1029.8 0.0
24/12:00am 4.7 2.2 3.5 92 0.5 SE 6 7 3 4 1029.9 1029.9 0.0
 
Date/Time
EST
Temp
°C
App
Temp
°C
Dew
Point
Rel
Hum
%
Delta-T
°C
Wind Press
QNH
hPa
Press
MSL
hPa
Rain
since 9 am
mm
Dir
 
Spd
km/h
Gust
km/h
Spd
kts
Gust
kts
23/11:30pm 5.3 2.7 4.0 91 0.5 S 7 9 4 5 1030.0 1030.0 0.0
23/11:00pm 5.6 3.2 4.1 90 0.6 SW 6 7 3 4 1030.1 1030.1 0.0
23/10:30pm 6.0 3.4 4.3 89 0.7 SSE 7 9 4 5 1029.9 1029.9 0.0
23/10:00pm 6.0 3.6 4.3 89 0.7 S 6 7 3 4 1030.2 1030.2 0.0
23/09:30pm 6.3 3.9 4.5 88 0.8 SE 6 7 3 4 1029.9 1029.9 0.0
23/09:00pm 7.0 4.5 4.7 85 1.0 SSE 7 11 4 6 1030.0 1030.0 0.0
23/08:30pm 7.3 4.4 4.8 84 1.1 S 9 11 5 6 1030.1 1030.1 0.0
23/08:00pm 8.0 5.6 5.1 82 1.3 S 7 9 4 5 1030.1 1030.1 0.0
23/07:30pm 8.5 6.1 5.3 80 1.4 S 7 9 4 5 1030.1 1030.1 0.0
23/07:00pm 9.0 6.6 5.4 78 1.6 SSW 7 9 4 5 1030.2 1030.2 0.0
23/06:30pm 9.4 7.0 5.4 76 1.8 SSW 7 7 4 4 1030.0 1030.0 0.0
23/06:00pm 10.6 9.3 5.8 72 2.2 SSE 2 6 1 3 1029.8 1029.8 0.0
23/05:30pm 12.7 11.0 5.8 63 3.2 S 4 7 2 4 1029.7 1029.7 0.0
23/05:00pm 13.5 11.4 5.7 59 3.7 S 6 9 3 5 1029.5 1029.5 0.0
23/04:30pm 14.1 11.7 5.2 55 4.2 S 7 13 4 7 1029.5 1029.5 0.0
23/04:00pm 14.6 11.5 5.4 54 4.3 SSE 11 15 6 8 1029.5 1029.5 0.0
23/03:30pm 15.1 12.4 5.6 53 4.5 S 9 15 5 8 1029.6 1029.6 0.0
23/03:00pm 14.8 12.4 5.1 52 4.5 SSE 7 15 4 8 1029.8 1029.8 0.0
23/02:30pm 14.6 12.2 5.1 53 4.5 S 7 15 4 8 1030.0 1030.0 0.0
23/02:00pm 14.4 12.1 5.5 55 4.2 SW 7 9 4 5 1030.1 1030.1 0.0
23/01:30pm 14.2 12.4 5.6 56 4.1 SE 4 11 2 6 1030.3 1030.3 0.0
23/01:00pm 13.7 11.5 5.3 57 3.9 E 6 13 3 7 1030.6 1030.6 0.0
23/12:30pm 13.2 11.0 5.4 59 3.7 S 6 13 3 7 1031.0 1031.0 0.0
23/12:00pm 12.4 9.7 5.6 63 3.1 ESE 9 13 5 7 1031.5 1031.5 0.0
23/11:30am 11.9 9.6 5.5 65 3.0 ENE 7 13 4 7 1032.2 1032.2 0.0
23/11:00am 11.5 8.6 6.4 71 2.4 ESE 11 19 6 10 1032.4 1032.4 0.0
23/10:30am 10.1 7.2 6.4 78 1.7 SE 11 13 6 7 1032.6 1032.7 0.0
23/10:00am 8.7 5.6 5.4 80 1.5 SE 11 15 6 8 1032.8 1032.9 0.0
23/09:30am 7.6 4.4 5.1 84 1.1 SSE 11 15 6 8 1032.8 1032.9 0.0
23/09:00am 6.1 3.2 4.9 92 0.5 SSE 9 13 5 7 1032.6 1032.7 0.0
23/08:30am 4.4 1.8 4.0 97 0.2 S 7 11 4 6 1032.4 1032.4 0.0
23/08:00am 3.1 0.2 2.8 98 0.1 SSW 7 9 4 5 1032.2 1032.2 0.0
23/07:30am 2.7 -0.3 2.3 97 0.2 S 7 9 4 5 1031.9 1031.9 0.0

Other Formats:

Comma delimited format used in spreadsheet applications
http://www.bom.gov.au/fwo/IDN60801/IDN60801.94693.axf

JavaScript Object Notation format (JSON) in row-major order
http://www.bom.gov.au/fwo/IDN60801/IDN60801.94693.json